createdAt,value
2022-10-03T00:02:14.599Z,88.80
2022-10-03T00:04:53.276Z,88.50
2022-10-03T00:07:42.960Z,88.90
2022-10-03T00:10:30.420Z,88.70
2022-10-03T00:13:24.021Z,88.50
2022-10-03T00:16:16.797Z,88.30
2022-10-03T00:19:10.927Z,88.50
2022-10-03T00:22:09.273Z,88.40
2022-10-03T00:24:57.626Z,88.20
2022-10-03T00:27:46.001Z,88.10
2022-10-03T00:30:25.301Z,87.50
2022-10-03T00:33:13.552Z,87.90
2022-10-03T00:35:55.120Z,87.50
2022-10-03T00:38:31.049Z,87.70
2022-10-03T00:41:09.373Z,87.00
2022-10-03T00:44:13.052Z,87.00
2022-10-03T00:47:10.758Z,87.30
2022-10-03T00:49:46.349Z,87.20
2022-10-03T00:52:40.287Z,87.00
2022-10-03T00:55:15.094Z,86.70
2022-10-03T00:57:59.881Z,86.70
2022-10-03T01:00:34.940Z,86.50
2022-10-03T01:03:49.272Z,86.10
2022-10-03T01:06:34.884Z,85.90
2022-10-03T01:09:06.676Z,85.90
2022-10-03T01:12:08.241Z,86.00
2022-10-03T01:14:52.350Z,86.50
2022-10-03T01:17:37.905Z,86.40
2022-10-03T01:20:27.071Z,86.40
2022-10-03T01:23:24.214Z,86.50
2022-10-03T01:26:12.624Z,86.50
2022-10-03T01:29:19.765Z,86.30
2022-10-03T01:32:08.262Z,86.20
2022-10-03T01:34:46.674Z,86.40
2022-10-03T01:37:25.473Z,86.50
2022-10-03T01:40:13.468Z,86.00
2022-10-03T01:43:00.660Z,86.70
2022-10-03T01:45:30.460Z,86.40
2022-10-03T01:48:20.260Z,86.30
2022-10-03T01:51:08.994Z,86.60
2022-10-03T01:53:49.002Z,86.20
2022-10-03T01:56:41.866Z,85.40
2022-10-03T01:59:13.844Z,85.80
2022-10-03T02:02:10.350Z,86.50
2022-10-03T02:04:51.691Z,86.20
2022-10-03T02:07:41.354Z,86.60
2022-10-03T02:10:28.364Z,86.50
2022-10-03T02:13:28.838Z,86.50
2022-10-03T02:16:25.086Z,86.30
2022-10-03T02:19:00.395Z,85.60
2022-10-03T02:21:34.954Z,86.20
2022-10-03T02:24:17.569Z,86.30
2022-10-03T02:27:07.556Z,86.30
2022-10-03T02:29:40.137Z,86.40
2022-10-03T02:32:27.301Z,86.10
2022-10-03T02:35:00.120Z,86.40
2022-10-03T02:37:46.608Z,86.40
2022-10-03T02:40:31.278Z,86.30
2022-10-03T02:43:18.852Z,86.90
2022-10-03T02:46:31.069Z,86.80
2022-10-03T02:49:27.269Z,87.20
2022-10-03T02:52:18.182Z,86.60
2022-10-03T02:54:58.141Z,86.70
2022-10-03T02:58:05.852Z,86.20
2022-10-03T03:01:09.674Z,85.80
2022-10-03T03:04:13.183Z,85.50
2022-10-03T03:07:10.927Z,84.40
2022-10-03T03:10:02.625Z,85.10
2022-10-03T03:13:13.052Z,85.00
2022-10-03T03:16:17.993Z,85.00
2022-10-03T03:18:49.860Z,85.30
2022-10-03T03:21:28.032Z,85.30
2022-10-03T03:24:06.960Z,85.40
2022-10-03T03:27:04.168Z,85.00
2022-10-03T03:29:33.853Z,85.30
2022-10-03T03:32:15.596Z,84.90
2022-10-03T03:35:31.329Z,85.10
2022-10-03T03:38:09.702Z,85.90
2022-10-03T03:41:06.170Z,85.50
2022-10-03T03:44:06.596Z,85.80
2022-10-03T03:46:52.019Z,85.90
2022-10-03T03:49:59.161Z,86.00
2022-10-03T03:52:46.994Z,86.00
2022-10-03T03:56:00.549Z,85.90
2022-10-03T03:58:56.302Z,85.80
2022-10-03T04:01:49.127Z,85.60
2022-10-03T04:04:43.045Z,85.90
2022-10-03T04:07:31.222Z,85.90
2022-10-03T04:10:42.254Z,86.10
2022-10-03T04:13:23.765Z,86.40
2022-10-03T04:16:14.727Z,86.40
2022-10-03T04:18:58.342Z,86.30
2022-10-03T04:21:55.554Z,86.30
2022-10-03T04:24:52.959Z,85.90
2022-10-03T04:27:40.461Z,85.90
2022-10-03T04:30:18.702Z,85.80
2022-10-03T04:32:57.096Z,85.80
2022-10-03T04:35:44.792Z,84.80
2022-10-03T04:38:36.420Z,85.10
2022-10-03T04:41:18.365Z,84.90
2022-10-03T04:44:08.581Z,85.20
2022-10-03T04:47:02.797Z,84.80
2022-10-03T04:49:46.026Z,85.00
2022-10-03T04:52:28.296Z,84.40
2022-10-03T04:55:26.681Z,85.10
2022-10-03T04:58:05.178Z,85.20
2022-10-03T05:00:58.931Z,85.30
2022-10-03T05:03:32.480Z,85.90
2022-10-03T05:06:06.081Z,85.90
2022-10-03T05:08:45.918Z,86.00
2022-10-03T05:11:50.256Z,86.60
2022-10-03T05:14:44.339Z,87.00
2022-10-03T05:17:52.309Z,86.60
2022-10-03T05:20:18.938Z,86.60
2022-10-03T05:23:19.218Z,86.60
2022-10-03T05:26:23.221Z,86.40
2022-10-03T05:29:15.219Z,86.10
2022-10-03T05:32:09.445Z,86.30
2022-10-03T05:34:47.630Z,86.40
2022-10-03T05:37:20.557Z,86.40
2022-10-03T05:40:01.590Z,86.30
2022-10-03T05:42:34.099Z,85.90
2022-10-03T05:45:30.386Z,85.70
2022-10-03T05:48:24.240Z,86.20
2022-10-03T05:51:13.333Z,85.90
2022-10-03T05:54:20.620Z,85.10
2022-10-03T05:57:35.644Z,85.10
2022-10-03T06:00:22.710Z,84.90
2022-10-03T06:03:33.973Z,85.80
2022-10-03T06:06:14.061Z,86.10
2022-10-03T06:09:31.273Z,86.10
2022-10-03T06:12:07.383Z,85.90
2022-10-03T06:14:45.780Z,85.40
2022-10-03T06:17:43.137Z,85.90
2022-10-03T06:20:55.468Z,85.60
2022-10-03T06:23:34.534Z,85.20
2022-10-03T06:26:50.835Z,85.50
2022-10-03T06:29:36.571Z,85.10
2022-10-03T06:32:12.024Z,84.90
2022-10-03T06:35:16.593Z,85.30
2022-10-03T06:38:04.233Z,85.10
2022-10-03T06:40:48.351Z,85.30
2022-10-03T06:43:40.087Z,85.30
2022-10-03T06:46:34.027Z,84.40
2022-10-03T06:49:28.680Z,84.20
2022-10-03T06:52:10.956Z,84.50
2022-10-03T06:55:04.546Z,84.40
2022-10-03T06:58:09.169Z,83.30
2022-10-03T07:00:53.639Z,83.40
2022-10-03T07:03:49.397Z,84.30
2022-10-03T07:06:31.893Z,84.10
2022-10-03T07:09:29.475Z,83.10
2022-10-03T07:12:32.349Z,83.40
2022-10-03T07:15:43.569Z,82.70
2022-10-03T07:18:43.444Z,83.20
2022-10-03T07:21:28.925Z,83.10
2022-10-03T07:24:27.441Z,81.50
2022-10-03T07:27:12.711Z,82.30
2022-10-03T07:30:16.732Z,81.40
2022-10-03T07:33:36.720Z,79.90
2022-10-03T07:36:39.022Z,80.20
2022-10-03T07:39:43.085Z,80.20
2022-10-03T07:42:48.215Z,79.30
2022-10-03T07:45:41.154Z,79.60
2022-10-03T07:48:26.791Z,79.90
2022-10-03T07:51:07.849Z,79.60
2022-10-03T07:54:04.807Z,79.10
2022-10-03T07:56:46.355Z,78.30
2022-10-03T07:59:45.684Z,77.90
2022-10-03T08:02:33.234Z,76.00
2022-10-03T08:05:24.060Z,76.10
2022-10-03T08:08:33.462Z,74.70
2022-10-03T08:11:31.736Z,75.40
2022-10-03T08:13:58.373Z,75.00
2022-10-03T08:17:05.434Z,75.60
2022-10-03T08:20:11.937Z,76.20
2022-10-03T08:23:24.188Z,75.40
2022-10-03T08:26:26.016Z,74.80
2022-10-03T08:29:14.686Z,74.80
2022-10-03T08:32:04.306Z,74.70
2022-10-03T08:35:00.033Z,75.00
2022-10-03T08:38:17.996Z,74.80
2022-10-03T08:41:21.934Z,77.00
2022-10-03T08:44:33.905Z,77.30
2022-10-03T08:47:19.020Z,77.60
2022-10-03T08:50:05.301Z,77.00
2022-10-03T08:52:32.364Z,76.40
2022-10-03T08:55:18.094Z,75.70
2022-10-03T08:58:49.573Z,75.90
2022-10-03T09:01:31.133Z,75.50
2022-10-03T09:04:16.530Z,75.10
2022-10-03T09:07:24.832Z,74.00
2022-10-03T09:10:09.351Z,73.70
2022-10-03T09:13:24.444Z,73.40
2022-10-03T09:16:16.161Z,72.30
2022-10-03T09:18:54.901Z,71.30
2022-10-03T09:21:44.124Z,73.20
2022-10-03T09:24:18.503Z,72.70
2022-10-03T09:27:14.648Z,70.90
2022-10-03T09:30:19.523Z,66.40
2022-10-03T09:32:52.037Z,66.40
2022-10-03T09:35:45.433Z,68.70
2022-10-03T09:38:28.938Z,68.90
2022-10-03T09:41:13.886Z,67.50
2022-10-03T09:44:04.513Z,67.80
2022-10-03T09:47:13.067Z,66.60
2022-10-03T09:50:01.312Z,67.90
2022-10-03T09:53:02.335Z,69.10
2022-10-03T09:56:01.319Z,69.20
2022-10-03T09:58:33.934Z,68.10
2022-10-03T10:01:12.808Z,69.30
2022-10-03T10:04:07.392Z,67.80
2022-10-03T10:07:04.736Z,67.80
2022-10-03T10:10:08.413Z,67.00
2022-10-03T10:13:09.413Z,65.30
2022-10-03T10:15:51.110Z,65.40
2022-10-03T10:18:39.094Z,65.30
2022-10-03T10:21:17.630Z,62.30
2022-10-03T10:24:12.066Z,62.60
2022-10-03T10:27:02.683Z,63.20
2022-10-03T10:29:54.526Z,64.80
2022-10-03T10:32:59.590Z,63.90
2022-10-03T10:35:59.467Z,62.40
2022-10-03T10:39:02.082Z,61.80
2022-10-03T10:42:06.127Z,63.80
2022-10-03T10:45:10.392Z,65.70
2022-10-03T10:48:09.281Z,65.60
2022-10-03T10:51:05.136Z,66.10
2022-10-03T10:54:07.082Z,66.70
2022-10-03T10:57:12.028Z,64.60
2022-10-03T10:59:58.869Z,63.70
2022-10-03T11:02:48.500Z,63.10
2022-10-03T11:05:41.326Z,63.10
2022-10-03T11:08:44.296Z,63.20
2022-10-03T11:11:46.994Z,62.60
2022-10-03T11:14:38.604Z,62.00
2022-10-03T11:17:37.926Z,61.90
2022-10-03T11:21:01.112Z,62.30
2022-10-03T11:24:06.335Z,61.60
2022-10-03T11:27:12.121Z,60.90
2022-10-03T11:30:04.893Z,60.40
2022-10-03T11:32:56.372Z,60.90
2022-10-03T11:35:44.251Z,61.70
2022-10-03T11:38:20.509Z,62.80
2022-10-03T11:41:18.713Z,63.10
2022-10-03T11:44:16.283Z,63.20
2022-10-03T11:47:21.054Z,61.00
2022-10-03T11:50:12.276Z,59.90
2022-10-03T11:53:17.021Z,61.00
2022-10-03T11:56:15.344Z,61.20
2022-10-03T11:59:03.843Z,59.40
2022-10-03T12:01:45.114Z,59.80
2022-10-03T12:04:51.672Z,59.20
2022-10-03T12:07:58.157Z,60.00
2022-10-03T12:10:38.242Z,58.80
2022-10-03T12:13:17.331Z,57.10
2022-10-03T12:15:46.749Z,58.30
2022-10-03T12:18:42.619Z,58.70
2022-10-03T12:21:12.509Z,59.00
2022-10-03T12:24:02.503Z,56.80
2022-10-03T12:26:54.804Z,55.90
2022-10-03T12:29:24.617Z,56.60
2022-10-03T12:31:58.063Z,56.70
2022-10-03T12:34:42.536Z,56.80
2022-10-03T12:37:35.619Z,55.40
2022-10-03T12:40:12.273Z,55.20
2022-10-03T12:43:17.264Z,56.50
2022-10-03T12:46:13.939Z,57.10
2022-10-03T12:48:56.564Z,57.40
2022-10-03T12:51:42.589Z,58.30
2022-10-03T12:54:38.696Z,56.50
2022-10-03T12:57:21.793Z,56.10
2022-10-03T13:00:09.932Z,54.40
2022-10-03T13:02:42.585Z,52.80
2022-10-03T13:05:21.846Z,52.90
2022-10-03T13:07:56.645Z,50.90
2022-10-03T13:10:37.457Z,50.80
2022-10-03T13:13:28.505Z,52.90
2022-10-03T13:16:07.203Z,53.50
2022-10-03T13:18:53.347Z,52.20
2022-10-03T13:21:55.799Z,53.30
2022-10-03T13:24:46.229Z,50.50
2022-10-03T13:27:34.316Z,50.90
2022-10-03T13:30:24.028Z,51.70
2022-10-03T13:32:57.763Z,51.60
2022-10-03T13:35:58.891Z,49.20
2022-10-03T13:39:05.138Z,50.70
2022-10-03T13:41:37.789Z,53.10
2022-10-03T13:44:13.076Z,51.70
2022-10-03T13:46:54.402Z,50.80
2022-10-03T13:49:44.816Z,52.20
2022-10-03T13:52:34.785Z,51.10
2022-10-03T13:55:18.616Z,51.60
2022-10-03T13:58:01.178Z,50.40
2022-10-03T14:00:40.941Z,52.20
2022-10-03T14:03:49.391Z,52.80
2022-10-03T14:06:37.429Z,54.40
2022-10-03T14:09:10.196Z,53.90
2022-10-03T14:11:44.260Z,52.00
2022-10-03T14:14:38.225Z,50.60
2022-10-03T14:17:11.232Z,49.30
2022-10-03T14:20:06.373Z,46.80
2022-10-03T14:22:38.183Z,44.80
2022-10-03T14:25:11.600Z,45.00
2022-10-03T14:27:51.901Z,46.00
2022-10-03T14:30:28.241Z,44.90
2022-10-03T14:33:14.074Z,45.20
2022-10-03T14:36:08.725Z,46.10
2022-10-03T14:38:58.700Z,45.20
2022-10-03T14:41:47.575Z,46.70
2022-10-03T14:44:24.160Z,48.80
2022-10-03T14:47:07.485Z,45.70
2022-10-03T14:49:57.995Z,42.40
2022-10-03T14:52:39.991Z,40.40
2022-10-03T14:55:28.968Z,39.20
2022-10-03T14:58:11.929Z,37.10
2022-10-03T15:00:43.526Z,35.90
2022-10-03T15:03:16.399Z,35.00
2022-10-03T15:05:54.984Z,34.70
2022-10-03T15:08:23.386Z,35.10
2022-10-03T15:10:54.309Z,35.10
2022-10-03T15:13:24.757Z,33.90
2022-10-03T15:15:55.550Z,33.20
2022-10-03T15:18:24.443Z,34.00
2022-10-03T15:20:57.404Z,36.40
2022-10-03T15:23:58.928Z,39.00
2022-10-03T15:26:30.904Z,40.70
2022-10-03T15:29:01.068Z,39.50
2022-10-03T15:31:49.282Z,39.60
2022-10-03T15:34:20.262Z,38.80
2022-10-03T15:36:50.749Z,39.80
2022-10-03T15:39:20.148Z,40.20
2022-10-03T15:41:56.322Z,40.10
2022-10-03T15:44:33.728Z,39.60
2022-10-03T15:47:06.353Z,39.70
2022-10-03T15:49:38.282Z,40.40
2022-10-03T15:52:17.422Z,40.90
2022-10-03T15:54:48.778Z,41.40
2022-10-03T15:57:24.957Z,42.00
2022-10-03T15:59:58.194Z,41.40
2022-10-03T16:02:34.979Z,41.40
2022-10-03T16:05:05.850Z,39.70
2022-10-03T16:08:01.574Z,39.40
2022-10-03T16:10:39.822Z,40.00
2022-10-03T16:13:17.724Z,40.70
2022-10-03T16:16:02.876Z,42.00
2022-10-03T16:18:53.416Z,43.80
2022-10-03T16:21:46.617Z,46.20
2022-10-03T16:24:35.107Z,48.40
2022-10-03T16:27:24.745Z,50.60
2022-10-03T16:30:04.312Z,51.60
2022-10-03T16:32:33.807Z,52.60
2022-10-03T16:35:03.662Z,53.90
2022-10-03T16:37:32.541Z,54.80
2022-10-03T16:40:08.086Z,55.00
2022-10-03T16:42:45.917Z,55.30
2022-10-03T16:45:34.859Z,56.00
2022-10-03T16:48:29.324Z,57.50
2022-10-03T16:50:57.145Z,58.10
2022-10-03T16:53:24.342Z,59.10
2022-10-03T16:56:08.061Z,60.40
2022-10-03T16:58:41.434Z,61.40
2022-10-03T17:01:27.740Z,61.60
2022-10-03T17:04:12.956Z,61.10
2022-10-03T17:06:40.515Z,61.30
2022-10-03T17:09:32.100Z,61.90
2022-10-03T17:12:00.759Z,63.20
2022-10-03T17:14:36.783Z,64.10
2022-10-03T17:17:12.373Z,65.10
2022-10-03T17:20:00.653Z,65.40
2022-10-03T17:22:35.227Z,66.20
2022-10-03T17:25:06.209Z,66.50
2022-10-03T17:27:38.998Z,67.30
2022-10-03T17:30:32.289Z,67.20
2022-10-03T17:33:07.098Z,68.00
2022-10-03T17:35:49.461Z,69.00
2022-10-03T17:38:48.291Z,69.20
2022-10-03T17:41:39.555Z,68.30
2022-10-03T17:44:47.444Z,68.90
2022-10-03T17:47:38.318Z,69.50
2022-10-03T17:50:17.986Z,70.20
2022-10-03T17:52:47.622Z,70.10
2022-10-03T17:55:28.906Z,70.10
2022-10-03T17:58:05.218Z,70.20
2022-10-03T18:01:10.043Z,70.00
2022-10-03T18:03:53.294Z,71.00
2022-10-03T18:06:28.756Z,70.40
2022-10-03T18:08:56.749Z,70.80
2022-10-03T18:11:28.306Z,71.00
2022-10-03T18:14:20.726Z,71.70
2022-10-03T18:17:13.249Z,72.00
2022-10-03T18:19:58.401Z,72.30
2022-10-03T18:22:37.239Z,72.60
2022-10-03T18:25:39.799Z,71.20
2022-10-03T18:28:20.918Z,70.10
2022-10-03T18:30:53.738Z,70.40
2022-10-03T18:33:31.500Z,71.90
2022-10-03T18:36:00.764Z,72.10
2022-10-03T18:38:30.065Z,72.90
2022-10-03T18:41:01.538Z,73.20
2022-10-03T18:43:34.378Z,73.00
2022-10-03T18:46:14.142Z,73.40
2022-10-03T18:49:03.011Z,73.60
2022-10-03T18:51:42.539Z,73.30
2022-10-03T18:54:38.390Z,72.80
2022-10-03T18:57:33.088Z,72.30
2022-10-03T19:00:05.872Z,72.80
2022-10-03T19:02:38.225Z,73.20
2022-10-03T19:05:28.088Z,73.20
2022-10-03T19:08:08.649Z,73.40
2022-10-03T19:10:48.914Z,74.10
2022-10-03T19:13:25.083Z,74.00
2022-10-03T19:15:57.987Z,74.20
2022-10-03T19:18:40.279Z,74.10
2022-10-03T19:21:18.388Z,74.30
2022-10-03T19:23:51.171Z,74.80
2022-10-03T19:26:33.552Z,75.20
2022-10-03T19:29:07.090Z,75.40
2022-10-03T19:31:59.427Z,74.20
2022-10-03T19:34:40.488Z,74.50
2022-10-03T19:37:24.273Z,74.40
2022-10-03T19:39:51.363Z,73.60
2022-10-03T19:42:44.135Z,72.40
2022-10-03T19:45:16.580Z,73.50
2022-10-03T19:47:57.681Z,74.60
2022-10-03T19:50:29.658Z,74.60
2022-10-03T19:52:56.537Z,74.30
2022-10-03T19:55:29.626Z,75.00
2022-10-03T19:58:08.518Z,76.10
2022-10-03T20:00:37.825Z,75.60
2022-10-03T20:03:24.306Z,75.70
2022-10-03T20:06:02.540Z,75.70
2022-10-03T20:08:53.221Z,76.10
2022-10-03T20:11:34.891Z,75.80
2022-10-03T20:14:03.463Z,75.30
2022-10-03T20:16:35.988Z,75.40
2022-10-03T20:19:10.615Z,74.00
2022-10-03T20:21:37.661Z,75.20
2022-10-03T20:24:21.340Z,75.40
2022-10-03T20:27:16.029Z,77.30
2022-10-03T20:29:50.817Z,77.40
2022-10-03T20:32:19.417Z,76.70
2022-10-03T20:34:52.829Z,77.50
2022-10-03T20:37:25.345Z,77.20
2022-10-03T20:39:54.723Z,77.20
2022-10-03T20:42:26.393Z,77.10
2022-10-03T20:45:14.092Z,77.00
2022-10-03T20:47:53.812Z,77.30
2022-10-03T20:50:29.574Z,76.30
2022-10-03T20:53:00.790Z,76.10
2022-10-03T20:55:43.897Z,75.90
2022-10-03T20:58:23.021Z,76.00
2022-10-03T21:00:58.031Z,75.80
2022-10-03T21:03:31.094Z,75.30
2022-10-03T21:05:59.795Z,75.40
2022-10-03T21:08:37.131Z,74.90
2022-10-03T21:11:18.326Z,76.00
2022-10-03T21:13:49.654Z,75.90
2022-10-03T21:16:33.961Z,74.40
2022-10-03T21:19:03.327Z,75.50
2022-10-03T21:21:43.594Z,74.80
2022-10-03T21:24:25.912Z,76.30
2022-10-03T21:27:00.100Z,76.60
2022-10-03T21:29:33.450Z,75.90
2022-10-03T21:32:19.034Z,75.40
2022-10-03T21:34:49.725Z,74.80
2022-10-03T21:37:36.502Z,74.90
2022-10-03T21:40:09.082Z,75.70
2022-10-03T21:42:42.937Z,76.30
2022-10-03T21:45:27.531Z,76.30
2022-10-03T21:48:20.777Z,76.20
2022-10-03T21:50:54.652Z,76.70
2022-10-03T21:53:55.198Z,77.00
2022-10-03T21:56:38.664Z,76.90
2022-10-03T21:59:11.462Z,76.70
2022-10-03T22:01:51.254Z,76.00
2022-10-03T22:04:23.795Z,76.40
2022-10-03T22:07:02.201Z,76.00
2022-10-03T22:09:29.099Z,75.20
2022-10-03T22:12:02.224Z,74.40
2022-10-03T22:14:35.765Z,75.70
2022-10-03T22:17:33.273Z,74.90
2022-10-03T22:20:19.907Z,75.70
2022-10-03T22:23:01.680Z,75.30
2022-10-03T22:25:34.140Z,74.90
2022-10-03T22:28:10.282Z,75.50
2022-10-03T22:30:45.518Z,76.40
2022-10-03T22:33:30.957Z,76.50
2022-10-03T22:36:02.946Z,75.70
2022-10-03T22:38:36.067Z,76.70
2022-10-03T22:41:09.965Z,77.00
2022-10-03T22:43:38.232Z,76.30
2022-10-03T22:46:07.247Z,76.50
2022-10-03T22:48:39.850Z,75.80
2022-10-03T22:51:08.392Z,75.40
2022-10-03T22:53:37.267Z,74.90
2022-10-03T22:56:42.440Z,75.70
2022-10-03T22:59:18.515Z,76.00
2022-10-03T23:01:47.131Z,76.80
2022-10-03T23:04:22.349Z,76.10
2022-10-03T23:07:10.228Z,76.90
2022-10-03T23:09:44.035Z,77.70
2022-10-03T23:12:11.772Z,77.50
2022-10-03T23:14:44.753Z,76.50
2022-10-03T23:17:46.057Z,76.30
2022-10-03T23:20:40.740Z,76.40
2022-10-03T23:23:15.808Z,75.40
2022-10-03T23:25:58.586Z,75.80
2022-10-03T23:28:43.704Z,76.30
2022-10-03T23:31:49.024Z,75.30
2022-10-03T23:34:34.601Z,73.70
2022-10-03T23:37:13.227Z,76.30
2022-10-03T23:40:04.205Z,77.00
2022-10-03T23:42:30.824Z,77.50
2022-10-03T23:45:00.049Z,78.50
2022-10-03T23:47:32.570Z,78.70
2022-10-03T23:50:02.207Z,78.90
2022-10-03T23:52:34.347Z,77.60
2022-10-03T23:55:06.781Z,76.40
2022-10-03T23:57:41.706Z,76.10
